Monday, October 16, 2017, 6:01 PM EDT
Back to Local

KBDL, Bradley International Airport

Location: Windsor Locks, CT, United States Lat: 41.933
Local Time: 6:01 PM EDT (22:01 GMT) Lon: -72.683
Time Zone: US/Eastern Elev: 173 ft

Show me the last for .
Show Decoded

2017-10-16 16:51 METAR KBDL 162051Z COR 31009KT 10SM BKN042 BKN230 12/04 A3004 RMK AO2 SLP172
                 T01170039 53020 =
2017-10-16 15:51 METAR KBDL 161951Z 32012KT 10SM SCT038 BKN180 BKN230 12/03 A3002 RMK AO2 SLP166
                 T01220033 =
2017-10-16 14:51 METAR KBDL 161851Z 32012KT 10SM SCT038 BKN180 OVC200 12/04 A2999 RMK AO2 SLP157
                 T01220039 =
2017-10-16 13:51 METAR KBDL 161751Z 32011G16KT 10SM SCT035 BKN160 OVC180 12/04 A2998 RMK AO2
                 SLP152 T01220044 10128 20117 50003 =
2017-10-16 12:51 METAR KBDL 161651Z 33008KT 10SM BKN035 BKN180 12/05 A3000 RMK AO2 SLP157
                 T01220050 =
2017-10-16 11:51 METAR KBDL 161551Z 34010KT 10SM BKN032 BKN180 12/05 A3000 RMK AO2 SLP159
                 T01170050 =
2017-10-16 10:51 METAR KBDL 161451Z 33012G21KT 10SM SCT033 OVC180 12/05 A2997 RMK AO2 SLP149
                 T01220050 51022 =
2017-10-16 09:51 METAR KBDL 161351Z 32011G17KT 10SM FEW035 BKN150 BKN180 12/04 A2996 RMK AO2
                 SLP146 T01170044 =
2017-10-16 08:51 METAR KBDL 161251Z 32010G15KT 10SM FEW032 FEW140 BKN170 BKN200 12/06 A2994 RMK
                 AO2 SLP139 T01220056 =
2017-10-16 07:51 METAR KBDL 161151Z 31013G18KT 10SM FEW040 FEW100 BKN140 BKN200 12/07 A2991 RMK
                 AO2 SLP127 60000 70002 T01220067 10172 20122 53023 =
2017-10-16 06:51 METAR KBDL 161051Z 33012G21KT 10SM FEW035 FEW110 BKN150 BKN250 13/07 A2986 RMK
                 AO2 SLP111 VIRGA SW-NW T01330067 =
2017-10-16 05:51 METAR KBDL 160951Z 33010G18KT 10SM FEW030 FEW085 BKN120 OVC150 14/09 A2984 RMK
                 AO2 RAE09 SLP105 P0000 T01440089 =
2017-10-16 04:51 METAR KBDL 160851Z 32012G17KT 10SM -RA FEW027 SCT080 OVC100 15/11 A2984 RMK AO2
                 RAB18 SLP104 P0000 60000 T01500106 53020 =
2017-10-16 03:51 METAR KBDL 160751Z 33009KT 10SM FEW025 FEW050 OVC095 17/13 A2981 RMK AO2 SLP094
                 T01670133 =
2017-10-16 02:51 METAR KBDL 160651Z 28009KT 10SM FEW013 SCT024 OVC040 17/15 A2979 RMK AO2
                 RAE0559B20E47 SLP086 P0000 T01670150 =
2017-10-16 01:51 METAR KBDL 160551Z 33007KT 8SM -RA FEW009 BKN018 OVC032 17/16 A2978 RMK AO2
                 SLP083 P0002 60002 T01720156 10217 20172 51009 =
2017-10-16 01:32 METAR KBDL 160532Z 35010KT 5SM -RA BR FEW009 BKN017 OVC041 18/17 A2978 RMK AO2
                 P0001 T01830172 =
2017-10-16 01:22 METAR KBDL 160522Z COR 33006KT 5SM -RA BR BKN013 OVC043 19/17 A2978 =
2017-10-16 00:51 METAR KBDL 160451Z 22006KT 8SM -RA SCT022 BKN060 OVC090 19/17 A2977 RMK AO2
                 RAB32 SLP078 P0000 T01940172 402440144 =
2017-10-16 00:45 METAR KBDL 160445Z 21007KT 8SM -RA SCT022 OVC060 19/17 A2977 RMK AO2 RAB32 P0000
                 =
2017-10-15 23:51 METAR KBDL 160351Z 21010KT 10SM BKN023 OVC095 20/16 A2975 RMK AO2 SLP073
                 T02000161 =
2017-10-15 22:51 METAR KBDL 160251Z 21012KT 10SM BKN024 20/16 A2976 RMK AO2 SLP075 T02000161
                 58001 =
2017-10-15 21:51 METAR KBDL 160151Z 21014G21KT 10SM BKN023 21/16 A2976 RMK AO2 SLP078 T02060161 =
2017-10-15 20:51 METAR KBDL 160051Z 21011KT 10SM BKN024 21/17 A2976 RMK AO2 SLP077 T02060167 =
2017-10-15 19:51 METAR KBDL 152351Z 21014KT 10SM BKN024 21/17 A2976 RMK AO2 SLP078 T02110167
                 10244 20211 58013 =
2017-10-15 19:29 METAR KBDL 152329Z 20015KT 10SM BKN025 21/17 A2976 =
2017-10-15 18:51 METAR KBDL 152251Z 20014G20KT 10SM SCT026 21/17 A2978 RMK AO2 SLP083 T02110167 =
2017-10-15 18:12 METAR KBDL 152212Z 19008G17KT 10SM SCT028 21/17 A2978 RMK AO2 T02110172 =

Support USWX by starting your Amazon purchase here.